createdAt,value
2018-09-22T00:05:38.955Z,11.03
2018-09-22T00:06:38.859Z,11.02
2018-09-22T00:07:39.011Z,10.95
2018-09-22T00:08:38.773Z,11.01
2018-09-22T00:09:38.765Z,10.95
2018-09-22T00:10:39.617Z,10.94
2018-09-22T00:11:38.611Z,10.98
2018-09-22T00:12:38.582Z,10.95
2018-09-22T00:13:38.878Z,10.90
2018-09-22T00:14:38.638Z,10.94
2018-09-22T00:15:38.779Z,10.91
2018-09-22T00:16:38.528Z,10.95
2018-09-22T00:17:38.498Z,10.93
2018-09-22T00:18:38.504Z,10.98
2018-09-22T00:19:38.549Z,10.90
2018-09-22T00:20:38.436Z,10.95
2018-09-22T00:21:38.452Z,10.98
2018-09-22T00:22:38.414Z,10.91
2018-09-22T00:23:38.405Z,10.93
2018-09-22T00:24:38.384Z,10.98
2018-09-22T00:25:38.427Z,10.91
2018-09-22T00:26:38.363Z,10.98
2018-09-22T00:27:38.369Z,10.90
2018-09-22T00:28:38.368Z,10.90
2018-09-22T00:29:41.039Z,10.98
2018-09-22T00:30:38.568Z,10.91
2018-09-22T00:31:38.595Z,10.91
2018-09-22T00:32:38.369Z,10.93
2018-09-22T00:33:38.306Z,10.93
2018-09-22T00:34:38.368Z,10.93
2018-09-22T00:35:38.347Z,10.95
2018-09-22T00:36:38.357Z,10.99
2018-09-22T00:45:25.266Z,10.93
2018-09-22T00:46:19.116Z,10.91
2018-09-22T00:47:20.023Z,10.95
2018-09-22T00:48:19.127Z,11.01
2018-09-22T00:49:19.142Z,10.91
2018-09-22T00:50:19.266Z,10.93
2018-09-22T00:51:19.135Z,10.93
2018-09-22T00:52:19.224Z,10.91
2018-09-22T00:53:19.101Z,10.93
2018-09-22T00:54:19.146Z,10.91
2018-09-22T00:55:20.143Z,10.90
2018-09-22T00:56:19.123Z,10.95
2018-09-22T00:57:19.090Z,10.83
2018-09-22T00:58:18.991Z,10.90
2018-09-22T00:59:18.982Z,10.87
2018-09-22T01:00:18.999Z,10.87
2018-09-22T01:01:18.917Z,10.99
2018-09-22T01:02:18.962Z,10.90
2018-09-22T01:03:18.959Z,10.91
2018-09-22T01:04:18.881Z,10.94
2018-09-22T01:05:18.976Z,10.94
2018-09-22T01:06:18.859Z,10.94
2018-09-22T01:07:18.861Z,10.95
2018-09-22T01:08:18.881Z,10.98
2018-09-22T01:09:18.839Z,11.01
2018-09-22T01:10:18.818Z,10.99
2018-09-22T01:11:18.796Z,11.01
2018-09-22T01:12:18.814Z,10.98
2018-09-22T01:13:18.776Z,10.98
2018-09-22T01:14:18.851Z,10.94
2018-09-22T01:15:19.469Z,10.94
2018-09-22T01:16:18.773Z,10.95
2018-09-22T01:17:19.017Z,10.98
2018-09-22T01:18:18.724Z,10.95
2018-09-22T01:19:18.706Z,10.94
2018-09-22T01:20:18.730Z,10.90
2018-09-22T01:21:18.714Z,10.94
2018-09-22T01:22:18.677Z,10.94
2018-09-22T01:23:18.708Z,10.90
2018-09-22T01:24:18.703Z,11.01
2018-09-22T01:25:18.667Z,10.95
2018-09-22T01:26:18.668Z,10.98
2018-09-22T01:27:18.621Z,10.98
2018-09-22T01:28:18.612Z,10.93
2018-09-22T01:29:18.657Z,10.99
2018-09-22T01:30:18.599Z,11.08
2018-09-22T01:31:18.657Z,11.03
2018-09-22T01:32:18.568Z,11.08
2018-09-22T01:33:19.000Z,11.02
2018-09-22T01:34:18.545Z,11.05
2018-09-22T01:35:18.547Z,11.01
2018-09-22T01:36:18.523Z,11.01
2018-09-22T01:37:18.539Z,10.95
2018-09-22T01:38:18.504Z,11.01
2018-09-22T01:39:18.509Z,10.95
2018-09-22T01:40:18.489Z,10.99
2018-09-22T01:41:18.475Z,10.95
2018-09-22T01:42:18.459Z,10.88
2018-09-22T01:43:18.521Z,10.83
2018-09-22T01:44:18.444Z,10.93
2018-09-22T01:45:18.519Z,10.91
2018-09-22T01:46:18.523Z,10.90
2018-09-22T01:47:18.410Z,10.99
2018-09-22T01:48:18.407Z,11.01
2018-09-22T01:49:18.377Z,11.08
2018-09-22T01:50:18.478Z,11.08
2018-09-22T01:51:18.423Z,11.06
2018-09-22T01:52:18.405Z,11.08
2018-09-22T01:53:18.440Z,11.13
2018-09-22T01:54:18.341Z,11.13
2018-09-22T01:55:18.346Z,11.05
2018-09-22T01:56:18.391Z,11.05
2018-09-22T01:57:18.293Z,11.16
2018-09-22T01:58:18.294Z,11.13
2018-09-22T01:59:18.335Z,11.20
2018-09-22T02:00:18.261Z,11.19
2018-09-22T02:01:18.364Z,11.19
2018-09-22T02:02:18.250Z,11.13
2018-09-22T02:03:18.236Z,11.17
2018-09-22T02:04:18.220Z,11.16
2018-09-22T02:05:18.221Z,11.17
2018-09-22T02:06:18.246Z,11.19
2018-09-22T02:07:19.187Z,11.13
2018-09-22T02:08:18.211Z,11.17
2018-09-22T02:09:18.236Z,11.20
2018-09-22T02:10:18.225Z,11.19
2018-09-22T02:11:18.172Z,11.17
2018-09-22T02:12:18.129Z,11.23
2018-09-22T02:13:23.022Z,11.20
2018-09-22T02:14:18.165Z,11.28
2018-09-22T02:15:18.227Z,11.28
2018-09-22T02:16:18.139Z,11.28
2018-09-22T02:17:21.514Z,11.28
2018-09-22T02:18:18.099Z,11.28
2018-09-22T02:19:18.218Z,11.21
2018-09-22T02:20:18.175Z,11.31
2018-09-22T02:21:18.111Z,11.23
2018-09-22T02:22:18.072Z,11.24
2018-09-22T02:23:18.059Z,11.17
2018-09-22T02:24:18.098Z,11.24
2018-09-22T02:25:18.100Z,11.13
2018-09-22T02:26:21.106Z,11.17
2018-09-22T02:27:17.984Z,11.12
2018-09-22T02:28:17.967Z,11.16
2018-09-22T02:29:17.936Z,11.16
2018-09-22T02:30:17.957Z,11.17
2018-09-22T02:31:17.919Z,11.13
2018-09-22T02:32:17.922Z,11.21
2018-09-22T02:33:18.016Z,11.17
2018-09-22T02:34:17.921Z,11.17
2018-09-22T02:35:17.882Z,11.16
2018-09-22T02:36:17.868Z,11.13
2018-09-22T02:37:17.845Z,11.06
2018-09-22T02:38:17.851Z,11.09
2018-09-22T02:39:17.898Z,11.08
2018-09-22T02:40:17.999Z,11.06
2018-09-22T02:41:17.872Z,11.02
2018-09-22T02:42:17.823Z,11.02
2018-09-22T02:43:17.832Z,11.01
2018-09-22T02:44:17.826Z,11.01
2018-09-22T02:45:17.823Z,10.95
2018-09-22T02:46:17.812Z,10.91
2018-09-22T02:47:17.755Z,10.95
2018-09-22T02:48:17.743Z,10.90
2018-09-22T02:49:17.748Z,10.93
2018-09-22T02:50:17.731Z,10.93
2018-09-22T02:51:17.690Z,10.86
2018-09-22T02:52:17.872Z,10.81
2018-09-22T02:53:17.698Z,10.86
2018-09-22T02:54:17.704Z,10.87
2018-09-22T02:55:17.893Z,10.83
2018-09-22T02:56:17.644Z,10.84
2018-09-22T02:57:17.678Z,10.84
2018-09-22T02:58:17.618Z,10.87
2018-09-22T02:59:17.620Z,10.88
2018-09-22T03:00:17.592Z,10.86
2018-09-22T03:01:17.583Z,10.87
2018-09-22T03:02:17.727Z,10.83
2018-09-22T03:03:17.576Z,10.87
2018-09-22T03:04:17.549Z,10.80
2018-09-22T03:05:17.583Z,10.86
2018-09-22T03:06:17.628Z,10.75
2018-09-22T03:07:17.531Z,10.81
2018-09-22T03:08:17.507Z,10.76
2018-09-22T03:09:17.492Z,10.80
2018-09-22T03:10:17.497Z,10.68
2018-09-22T03:11:17.493Z,10.76
2018-09-22T03:12:17.467Z,10.78
2018-09-22T03:13:17.450Z,10.84
2018-09-22T03:14:17.477Z,10.70
2018-09-22T03:15:17.515Z,10.78
2018-09-22T03:16:17.462Z,10.69
2018-09-22T03:17:17.414Z,10.76
2018-09-22T03:18:17.432Z,10.75
2018-09-22T03:19:17.386Z,10.76
2018-09-22T03:20:17.454Z,10.76
2018-09-22T03:21:17.362Z,10.78
2018-09-22T03:22:17.363Z,10.69
2018-09-22T03:23:17.366Z,10.75
2018-09-22T03:24:17.320Z,10.78
2018-09-22T03:25:17.426Z,10.83
2018-09-22T03:26:17.301Z,10.87
2018-09-22T03:27:17.300Z,10.91
2018-09-22T03:28:17.392Z,10.83
2018-09-22T03:29:17.293Z,10.94
2018-09-22T03:30:17.297Z,10.88
2018-09-22T03:31:17.290Z,10.87
2018-09-22T03:32:17.310Z,10.87
2018-09-22T03:33:17.247Z,10.94
2018-09-22T03:34:17.256Z,11.02
2018-09-22T03:35:17.201Z,10.90
2018-09-22T03:36:17.192Z,11.02
2018-09-22T03:37:17.184Z,11.01
2018-09-22T03:38:17.173Z,10.98
2018-09-22T03:39:17.264Z,11.05
2018-09-22T03:40:17.152Z,11.03
2018-09-22T03:41:17.144Z,11.06
2018-09-22T03:42:17.124Z,11.09
2018-09-22T03:43:17.169Z,10.94
2018-09-22T03:44:17.117Z,11.09
2018-09-22T03:45:17.211Z,11.08
2018-09-22T03:46:17.088Z,10.95
2018-09-22T03:47:17.078Z,10.99
2018-09-22T03:48:17.061Z,10.99
2018-09-22T03:49:17.044Z,11.03
2018-09-22T03:50:17.150Z,11.03
2018-09-22T03:51:17.038Z,11.05
2018-09-22T03:52:17.060Z,10.98
2018-09-22T03:53:17.008Z,10.95
2018-09-22T03:54:16.992Z,10.90
2018-09-22T03:55:17.045Z,10.94
2018-09-22T03:56:16.976Z,10.90
2018-09-22T03:57:17.006Z,10.93
2018-09-22T03:58:16.973Z,10.95
2018-09-22T03:59:16.972Z,10.93
2018-09-22T04:00:16.934Z,10.95
2018-09-22T04:01:16.909Z,10.95
2018-09-22T04:02:16.990Z,10.95
2018-09-22T04:03:16.944Z,10.94
2018-09-22T04:04:16.879Z,10.95
2018-09-22T04:05:16.877Z,10.95
2018-09-22T04:06:16.860Z,10.90
2018-09-22T04:07:16.887Z,10.88
2018-09-22T04:08:16.929Z,10.93
2018-09-22T04:09:16.844Z,10.87
2018-09-22T04:10:16.892Z,10.83
2018-09-22T04:11:16.806Z,10.90
2018-09-22T04:12:16.793Z,10.87
2018-09-22T04:13:16.877Z,10.83
2018-09-22T04:14:16.773Z,10.84
2018-09-22T04:15:16.792Z,10.90
2018-09-22T04:16:16.788Z,10.87
2018-09-22T04:17:16.745Z,10.81
2018-09-22T04:18:16.719Z,10.86
2018-09-22T04:19:16.744Z,10.76
2018-09-22T04:20:16.801Z,10.84
2018-09-22T04:21:16.703Z,10.78
2018-09-22T04:22:16.681Z,10.73
2018-09-22T04:23:16.710Z,10.69
2018-09-22T04:24:16.676Z,10.75
2018-09-22T04:25:16.696Z,10.68
2018-09-22T04:26:16.635Z,10.78
2018-09-22T04:27:16.629Z,10.70
2018-09-22T04:28:16.620Z,10.72
2018-09-22T04:29:16.621Z,10.68
2018-09-22T04:30:16.669Z,10.70
2018-09-22T04:31:16.882Z,10.66
2018-09-22T04:32:17.457Z,10.62
2018-09-22T04:33:16.601Z,10.66
2018-09-22T04:34:16.614Z,10.68
2018-09-22T04:35:17.501Z,10.68
2018-09-22T04:36:16.545Z,10.73
2018-09-22T04:37:16.545Z,10.68
2018-09-22T04:38:16.525Z,10.57
2018-09-22T04:39:16.497Z,10.60
2018-09-22T04:40:16.569Z,10.65
2018-09-22T04:41:16.492Z,10.66
2018-09-22T04:42:16.560Z,10.75
2018-09-22T04:43:16.522Z,10.68
2018-09-22T04:44:16.466Z,10.63
2018-09-22T04:45:16.431Z,10.66
2018-09-22T04:46:16.418Z,10.68
2018-09-22T04:47:16.409Z,10.75
2018-09-22T04:48:16.431Z,10.76
2018-09-22T04:49:16.390Z,10.75
2018-09-22T04:50:16.408Z,10.86
2018-09-22T04:51:16.358Z,10.81
2018-09-22T04:52:16.361Z,10.80
2018-09-22T04:53:16.340Z,10.83
2018-09-22T04:54:16.396Z,10.78
2018-09-22T04:55:16.352Z,10.86
2018-09-22T04:56:16.403Z,10.75
2018-09-22T04:57:16.295Z,10.70
2018-09-22T04:58:16.374Z,10.65
2018-09-22T04:59:16.284Z,10.75
2018-09-22T05:00:16.271Z,10.76
2018-09-22T05:01:16.266Z,10.73
2018-09-22T05:02:16.265Z,10.72
2018-09-22T05:03:17.020Z,10.63
2018-09-22T05:04:18.108Z,10.72
2018-09-22T05:07:25.716Z,10.81
2018-09-22T05:08:25.443Z,10.81
2018-09-22T05:09:25.689Z,10.78
2018-09-22T05:10:25.165Z,10.78
2018-09-22T05:11:25.171Z,10.73
2018-09-22T05:12:25.102Z,10.72
2018-09-22T05:13:25.139Z,10.76
2018-09-22T05:14:25.114Z,10.68
2018-09-22T05:15:25.115Z,10.73
2018-09-22T05:16:25.069Z,10.65
2018-09-22T05:17:25.244Z,10.66
2018-09-22T05:18:25.826Z,10.68
2018-09-22T05:19:29.727Z,10.69
2018-09-22T05:20:25.006Z,10.69
2018-09-22T05:22:44.338Z,10.69
2018-09-22T05:23:43.946Z,10.66
2018-09-22T05:24:43.877Z,10.65
2018-09-22T05:25:44.011Z,10.70
2018-09-22T05:26:43.758Z,10.65
2018-09-22T05:27:43.734Z,10.66
2018-09-22T05:28:43.748Z,10.66
2018-09-22T05:29:43.734Z,10.66
2018-09-22T05:30:43.707Z,10.68
2018-09-22T05:31:43.698Z,10.63
2018-09-22T05:32:43.695Z,10.70
2018-09-22T05:33:43.710Z,10.68
2018-09-22T05:34:43.674Z,10.68
2018-09-22T05:35:43.651Z,10.70
2018-09-22T05:36:43.801Z,10.69
2018-09-22T05:37:43.624Z,10.66
2018-09-22T05:38:43.614Z,10.72
2018-09-22T05:39:43.650Z,10.70
2018-09-22T05:40:43.626Z,10.63
2018-09-22T05:41:43.640Z,10.63
2018-09-22T05:42:43.567Z,10.69
2018-09-22T05:43:43.575Z,10.68
2018-09-22T05:44:43.555Z,10.68
2018-09-22T05:45:43.556Z,10.66
2018-09-22T05:46:43.527Z,10.65
2018-09-22T05:47:43.512Z,10.70
2018-09-22T05:48:43.523Z,10.80
2018-09-22T05:49:43.504Z,10.76
2018-09-22T05:50:43.498Z,10.75
2018-09-22T05:51:43.473Z,10.68
2018-09-22T05:52:43.477Z,10.75
2018-09-22T05:53:43.467Z,10.66
2018-09-22T05:54:43.434Z,10.66
2018-09-22T05:55:43.450Z,10.84
2018-09-22T05:56:43.436Z,10.68
2018-09-22T05:57:43.413Z,10.65
2018-09-22T05:58:43.418Z,10.66
2018-09-22T05:59:43.392Z,10.81
2018-09-22T06:00:43.563Z,10.78
2018-09-22T06:01:43.361Z,10.76
2018-09-22T06:02:43.381Z,10.73
2018-09-22T06:03:43.431Z,10.78
2018-09-22T06:04:43.358Z,10.78
2018-09-22T06:05:43.356Z,10.83
2018-09-22T06:06:43.311Z,10.80
2018-09-22T06:07:43.301Z,10.81
2018-09-22T06:08:43.305Z,10.84
2018-09-22T06:09:43.326Z,10.88
2018-09-22T06:10:43.285Z,10.84
2018-09-22T06:11:43.262Z,10.75
2018-09-22T06:12:43.248Z,10.88
2018-09-22T06:13:43.233Z,10.95
2018-09-22T06:14:43.245Z,10.84
2018-09-22T06:15:43.211Z,10.98
2018-09-22T06:16:43.228Z,11.01
2018-09-22T06:17:43.241Z,10.88
2018-09-22T06:18:43.204Z,10.94
2018-09-22T06:19:43.170Z,10.93
2018-09-22T06:20:43.172Z,11.02
2018-09-22T06:21:43.173Z,10.98
2018-09-22T06:22:43.135Z,11.09
2018-09-22T06:23:43.134Z,10.99
2018-09-22T06:24:43.470Z,10.98
2018-09-22T06:25:43.106Z,11.08
2018-09-22T06:26:43.112Z,11.16
2018-09-22T06:27:43.116Z,11.17
2018-09-22T06:28:43.086Z,11.11
2018-09-22T06:29:43.064Z,11.17
2018-09-22T06:30:43.060Z,11.21
2018-09-22T06:31:43.110Z,11.16
2018-09-22T06:32:43.140Z,11.20
2018-09-22T06:33:43.014Z,11.28
2018-09-22T06:34:43.007Z,11.27
2018-09-22T06:35:43.018Z,11.27
2018-09-22T06:36:43.020Z,11.38
2018-09-22T06:37:42.989Z,11.31
2018-09-22T06:38:43.792Z,11.36
2018-09-22T06:39:42.958Z,11.38
2018-09-22T06:40:42.934Z,11.45
2018-09-22T06:41:44.905Z,11.42
2018-09-22T06:42:42.939Z,11.41
2018-09-22T06:43:42.956Z,11.46
2018-09-22T06:44:42.896Z,11.49
2018-09-22T06:45:42.877Z,11.48
2018-09-22T06:46:42.886Z,11.46
2018-09-22T06:47:42.890Z,11.54
2018-09-22T06:48:42.939Z,11.56
2018-09-22T06:49:42.837Z,11.54
2018-09-22T06:50:42.830Z,11.60
2018-09-22T06:51:42.829Z,11.62
2018-09-22T06:52:42.816Z,11.54
2018-09-22T06:53:42.816Z,11.60
2018-09-22T06:54:42.865Z,11.57
2018-09-22T06:55:42.776Z,11.69
2018-09-22T06:56:42.758Z,11.64
2018-09-22T06:57:42.995Z,11.63
2018-09-22T06:58:42.761Z,11.70
2018-09-22T06:59:42.730Z,11.72
2018-09-22T07:00:42.732Z,11.79
2018-09-22T07:01:42.715Z,11.77
2018-09-22T07:02:42.731Z,11.87
2018-09-22T07:03:42.687Z,11.94
2018-09-22T07:04:42.722Z,11.88
2018-09-22T07:05:42.687Z,11.88
2018-09-22T07:06:42.676Z,12.04
2018-09-22T07:07:42.640Z,12.04
2018-09-22T07:08:42.638Z,12.08
2018-09-22T07:09:42.798Z,12.13
2018-09-22T07:10:43.835Z,12.08
2018-09-22T07:11:42.636Z,12.13
2018-09-22T07:12:42.633Z,12.26
2018-09-22T07:13:42.605Z,12.22
2018-09-22T07:14:42.565Z,12.21
2018-09-22T07:15:42.573Z,12.36
2018-09-22T07:16:42.647Z,12.40
2018-09-22T07:17:42.544Z,12.36
2018-09-22T07:18:42.531Z,12.37
2018-09-22T07:19:42.574Z,12.37
2018-09-22T07:20:42.518Z,12.41
2018-09-22T07:21:42.508Z,12.46
2018-09-22T07:22:43.039Z,12.44
2018-09-22T07:23:42.495Z,12.44
2018-09-22T07:24:42.720Z,12.38
2018-09-22T07:25:42.471Z,12.48
2018-09-22T07:26:42.483Z,12.49
2018-09-22T07:27:42.430Z,12.54
2018-09-22T07:28:42.409Z,12.55
2018-09-22T07:29:42.415Z,12.67
2018-09-22T07:30:42.493Z,12.61
2018-09-22T07:31:42.400Z,12.67
2018-09-22T07:32:42.372Z,12.71
2018-09-22T07:33:42.392Z,12.73
2018-09-22T07:36:03.234Z,12.79
2018-09-22T07:37:02.794Z,12.84
2018-09-22T07:38:02.892Z,12.85
2018-09-22T07:39:02.709Z,12.89
2018-09-22T07:40:02.653Z,12.95
2018-09-22T07:41:02.683Z,12.91
2018-09-22T07:42:02.635Z,12.89
2018-09-22T07:43:02.623Z,12.99
2018-09-22T07:44:02.646Z,12.95
2018-09-22T07:45:02.667Z,12.99
2018-09-22T07:46:03.336Z,13.07
2018-09-22T07:47:02.572Z,13.09
2018-09-22T07:48:02.564Z,13.12
2018-09-22T07:49:02.709Z,13.09
2018-09-22T07:50:02.554Z,13.12
2018-09-22T07:51:02.555Z,13.14
2018-09-22T07:52:02.551Z,13.22
2018-09-22T07:53:02.594Z,13.28
2018-09-22T07:54:02.503Z,13.31
2018-09-22T07:55:02.491Z,13.31
2018-09-22T07:56:02.556Z,13.38
2018-09-22T07:57:02.555Z,13.41
2018-09-22T07:58:02.462Z,13.43
2018-09-22T07:59:02.468Z,13.43
2018-09-22T08:00:02.436Z,13.46
2018-09-22T08:01:02.423Z,13.41
2018-09-22T08:02:02.453Z,13.50
2018-09-22T08:03:02.405Z,13.43
2018-09-22T08:04:02.385Z,13.51
2018-09-22T08:05:02.380Z,13.48
2018-09-22T08:06:02.380Z,13.46
2018-09-22T08:07:02.357Z,13.48
2018-09-22T08:08:02.368Z,13.50
2018-09-22T08:09:02.482Z,13.50
2018-09-22T08:10:02.326Z,13.55
2018-09-22T08:11:02.307Z,13.61
2018-09-22T08:12:02.359Z,13.65
2018-09-22T08:13:02.305Z,13.63
2018-09-22T08:14:02.275Z,13.69
2018-09-22T08:15:02.279Z,13.75
2018-09-22T08:16:02.252Z,13.81
2018-09-22T08:17:02.534Z,13.86
2018-09-22T08:18:02.261Z,14.01
2018-09-22T08:19:02.874Z,13.98
2018-09-22T08:20:02.228Z,13.99
2018-09-22T08:21:02.208Z,13.90
2018-09-22T08:22:02.189Z,13.91
2018-09-22T08:23:02.213Z,13.96
2018-09-22T08:24:02.185Z,13.86
2018-09-22T08:25:02.206Z,13.93
2018-09-22T08:26:02.144Z,14.06
2018-09-22T08:27:02.146Z,13.94
2018-09-22T08:28:02.119Z,13.87
2018-09-22T08:29:02.797Z,13.96
2018-09-22T08:30:02.113Z,13.87
2018-09-22T08:31:02.819Z,13.90
2018-09-22T08:32:02.156Z,13.99
2018-09-22T08:33:02.220Z,14.02
2018-09-22T08:34:02.169Z,14.08
2018-09-22T08:35:03.980Z,14.13
2018-09-22T08:36:03.003Z,14.11
2018-09-22T08:38:23.864Z,14.19
2018-09-22T08:39:23.455Z,14.13
2018-09-22T08:40:23.501Z,14.19
2018-09-22T08:41:23.355Z,14.24
2018-09-22T08:42:23.297Z,14.17
2018-09-22T08:43:23.198Z,14.26
2018-09-22T08:44:23.174Z,14.31
2018-09-22T08:45:23.173Z,14.36
2018-09-22T08:46:23.399Z,14.34
2018-09-22T08:47:23.130Z,14.42
2018-09-22T08:48:23.219Z,14.52
2018-09-22T08:49:23.115Z,14.59
2018-09-22T08:50:23.101Z,14.59
2018-09-22T08:51:23.131Z,14.75
2018-09-22T08:52:23.074Z,14.74
2018-09-22T08:53:23.100Z,14.82
2018-09-22T08:54:23.148Z,14.79
2018-09-22T08:55:23.063Z,14.82
2018-09-22T08:56:23.058Z,14.72
2018-09-22T08:57:23.035Z,14.72
2018-09-22T08:58:23.053Z,14.78
2018-09-22T08:59:23.135Z,14.74
2018-09-22T09:00:23.287Z,14.85
2018-09-22T09:01:23.132Z,14.93
2018-09-22T09:02:44.032Z,15.01
2018-09-22T09:03:22.956Z,14.97
2018-09-22T09:04:22.938Z,15.00
2018-09-22T09:05:22.951Z,15.07
2018-09-22T09:06:22.934Z,14.95
2018-09-22T09:07:22.913Z,14.98
2018-09-22T09:08:22.900Z,15.07
2018-09-22T09:09:22.879Z,15.09
2018-09-22T09:10:22.883Z,15.13
2018-09-22T09:11:22.913Z,15.16
2018-09-22T09:12:22.854Z,15.25
2018-09-22T09:13:22.842Z,15.19
2018-09-22T09:14:22.835Z,15.25
2018-09-22T09:15:22.867Z,15.31
2018-09-22T09:16:22.829Z,15.25
2018-09-22T09:17:22.799Z,15.31
2018-09-22T09:18:22.820Z,15.30
2018-09-22T09:19:22.769Z,15.41
2018-09-22T09:20:22.755Z,15.40
2018-09-22T09:21:22.761Z,15.38
2018-09-22T09:22:22.791Z,15.30
2018-09-22T09:23:29.443Z,15.28
2018-09-22T09:24:22.756Z,15.41
2018-09-22T09:25:23.168Z,15.41
2018-09-22T09:30:15.006Z,15.64
2018-09-22T09:31:14.323Z,15.77
2018-09-22T09:32:14.701Z,15.71
2018-09-22T09:34:32.526Z,15.74
2018-09-22T09:36:45.244Z,15.81
2018-09-22T09:37:44.743Z,15.81
2018-09-22T09:38:44.824Z,15.92
2018-09-22T09:40:55.889Z,16.04
2018-09-22T09:41:55.378Z,15.98
2018-09-22T09:42:55.506Z,16.08
2018-09-22T09:43:55.319Z,15.99
2018-09-22T09:44:56.918Z,15.99
2018-09-22T09:45:55.309Z,15.95
2018-09-22T09:46:55.319Z,15.80
2018-09-22T09:47:55.321Z,15.88
2018-09-22T09:48:56.180Z,15.91
2018-09-22T09:49:55.290Z,15.89
2018-09-22T09:50:55.264Z,15.88
2018-09-22T09:53:32.612Z,15.89
2018-09-22T09:59:51.499Z,16.25
2018-09-22T10:02:13.526Z,16.27
2018-09-22T10:03:09.784Z,16.25
2018-09-22T10:04:02.445Z,16.26
2018-09-22T10:05:03.111Z,16.18
2018-09-22T10:06:02.275Z,16.27
2018-09-22T10:10:02.506Z,16.42
2018-09-22T10:11:02.938Z,16.48
2018-09-22T10:13:59.510Z,16.55
2018-09-22T10:14:52.065Z,16.66
2018-09-22T10:15:50.885Z,16.70
2018-09-22T10:16:51.355Z,16.72
2018-09-22T10:17:50.799Z,16.63
2018-09-22T10:18:50.878Z,16.66
2018-09-22T10:33:28.703Z,16.88
2018-09-22T10:36:31.232Z,16.92
2018-09-22T10:37:16.782Z,16.98
2018-09-22T10:38:17.463Z,16.87
2018-09-22T10:39:16.864Z,16.95
2018-09-22T10:41:38.062Z,16.80
2018-09-22T10:42:37.770Z,16.73
2018-09-22T10:43:38.301Z,16.66
2018-09-22T10:44:38.719Z,16.63
2018-09-22T10:45:40.595Z,16.65
2018-09-22T10:49:52.276Z,16.91
2018-09-22T10:50:52.714Z,16.88
2018-09-22T10:51:52.183Z,16.87
2018-09-22T10:54:41.660Z,16.80
2018-09-22T10:55:43.253Z,16.85
2018-09-22T10:56:41.337Z,16.84
2018-09-22T11:02:24.597Z,16.67
2018-09-22T11:03:20.127Z,16.63
2018-09-22T11:10:51.268Z,16.55
2018-09-22T11:17:30.973Z,17.00
2018-09-22T11:18:22.110Z,17.20
2018-09-22T11:19:35.449Z,17.21
2018-09-22T11:20:22.753Z,17.20
2018-09-22T11:21:22.231Z,17.25
2018-09-22T11:22:22.136Z,17.21
2018-09-22T11:23:22.010Z,17.22
2018-09-22T11:24:22.031Z,17.20
2018-09-22T11:25:21.932Z,17.18
2018-09-22T11:26:21.909Z,17.24
2018-09-22T11:27:21.939Z,17.18
2018-09-22T11:28:21.881Z,17.18
2018-09-22T11:29:21.902Z,17.30
2018-09-22T11:30:21.904Z,17.43
2018-09-22T11:31:21.846Z,17.40
2018-09-22T11:32:21.854Z,17.51
2018-09-22T11:33:21.843Z,17.54
2018-09-22T11:34:21.989Z,17.54
2018-09-22T11:35:21.824Z,17.47
2018-09-22T11:36:21.920Z,17.46
2018-09-22T11:37:21.807Z,17.53
2018-09-22T11:38:21.826Z,17.49
2018-09-22T11:39:21.809Z,17.57
2018-09-22T11:40:21.754Z,17.58
2018-09-22T11:41:21.752Z,17.57
2018-09-22T11:42:21.727Z,17.62
2018-09-22T11:43:21.897Z,17.70
2018-09-22T11:44:21.748Z,17.55
2018-09-22T11:45:21.807Z,17.47
2018-09-22T11:46:21.735Z,17.57
2018-09-22T11:47:21.686Z,17.57
2018-09-22T11:48:21.659Z,17.58
2018-09-22T11:49:21.663Z,17.68
2018-09-22T11:50:21.687Z,17.60
2018-09-22T11:51:21.742Z,17.73
2018-09-22T11:52:21.642Z,17.70
2018-09-22T11:53:21.928Z,17.60
2018-09-22T11:56:02.049Z,17.62
2018-09-22T11:57:01.796Z,17.57
2018-09-22T11:58:02.003Z,17.60
2018-09-22T12:00:59.353Z,17.53
2018-09-22T12:01:58.935Z,17.47
2018-09-22T12:59:24.442Z,17.45
2018-09-22T16:37:13.093Z,12.56
2018-09-22T16:38:37.750Z,12.55
2018-09-22T16:39:12.357Z,12.54
2018-09-22T16:40:12.543Z,12.55
2018-09-22T16:41:12.260Z,12.54
2018-09-22T16:42:12.282Z,12.54
2018-09-22T16:43:12.225Z,12.56
2018-09-22T16:44:14.483Z,12.51
2018-09-22T16:45:33.477Z,12.54
2018-09-22T16:58:34.292Z,12.34
2018-09-22T16:59:30.717Z,12.33
2018-09-22T17:00:30.212Z,12.26
2018-09-22T17:01:31.741Z,12.19
2018-09-22T17:02:33.223Z,12.23
2018-09-22T17:07:44.491Z,12.13
2018-09-22T17:08:44.268Z,12.25
2018-09-22T17:39:39.379Z,12.01
2018-09-22T17:42:13.568Z,11.93
2018-09-22T17:43:03.294Z,11.78
2018-09-22T17:47:18.567Z,11.49
2018-09-22T17:48:15.287Z,11.42
2018-09-22T17:49:14.444Z,11.38
2018-09-22T17:50:14.275Z,11.36
2018-09-22T17:51:14.339Z,11.45
2018-09-22T17:52:14.168Z,11.35
2018-09-22T17:53:14.254Z,11.24
2018-09-22T17:54:14.180Z,11.24
2018-09-22T17:55:14.429Z,11.20
2018-09-22T17:56:14.117Z,11.20
2018-09-22T17:57:14.112Z,11.21
2018-09-22T17:58:14.553Z,11.19
2018-09-22T17:59:14.075Z,11.21
2018-09-22T18:00:14.106Z,11.24
2018-09-22T18:01:14.086Z,11.16
2018-09-22T18:02:14.178Z,11.13
2018-09-22T18:03:14.040Z,11.19
2018-09-22T18:04:14.062Z,11.16
2018-09-22T18:05:14.014Z,11.13
2018-09-22T18:06:14.012Z,11.11
2018-09-22T18:07:13.977Z,11.13
2018-09-22T18:08:14.021Z,11.06
2018-09-22T18:09:14.045Z,11.05
2018-09-22T18:10:13.994Z,11.21
2018-09-22T18:11:13.997Z,11.19
2018-09-22T18:12:14.006Z,11.12
2018-09-22T18:13:13.988Z,11.11
2018-09-22T18:14:13.908Z,11.13
2018-09-22T18:15:13.921Z,11.03
2018-09-22T18:16:13.936Z,11.08
2018-09-22T18:17:13.919Z,11.08
2018-09-22T18:18:13.897Z,11.03
2018-09-22T18:19:13.871Z,11.06
2018-09-22T18:20:13.977Z,11.08
2018-09-22T18:21:13.886Z,11.03
2018-09-22T18:22:13.848Z,11.06
2018-09-22T18:23:13.849Z,11.08
2018-09-22T18:24:13.795Z,11.16
2018-09-22T18:25:13.821Z,11.21
2018-09-22T18:38:46.375Z,11.06
2018-09-22T18:41:51.696Z,11.06
2018-09-22T18:42:28.881Z,11.09
2018-09-22T18:43:27.634Z,11.05
2018-09-22T18:44:27.635Z,11.06
2018-09-22T18:45:28.657Z,10.94
2018-09-22T18:46:28.544Z,10.99
2018-09-22T18:47:31.018Z,11.06
2018-09-22T18:48:27.564Z,11.02
2018-09-22T18:49:28.668Z,11.08
2018-09-22T18:50:35.385Z,11.05
2018-09-22T18:52:54.683Z,11.11
2018-09-22T18:53:54.018Z,11.06
2018-09-22T18:54:53.470Z,11.08
2018-09-22T18:55:56.759Z,10.94
2018-09-22T18:56:53.287Z,10.98
2018-09-22T18:57:53.303Z,11.05
2018-09-22T18:58:53.224Z,10.99
2018-09-22T18:59:53.309Z,11.08
2018-09-22T19:00:53.219Z,10.93
2018-09-22T19:01:53.265Z,11.06
2018-09-22T19:02:54.125Z,10.93
2018-09-22T19:03:53.171Z,11.06
2018-09-22T19:04:53.277Z,10.99
2018-09-22T19:05:53.388Z,10.98
2018-09-22T19:06:56.344Z,10.95
2018-09-22T19:07:53.123Z,10.93
2018-09-22T19:08:53.266Z,10.98
2018-09-22T19:09:53.317Z,10.99
2018-09-22T19:12:46.088Z,10.98
2018-09-22T19:13:46.994Z,11.01
2018-09-22T19:14:45.973Z,10.95
2018-09-22T19:15:45.484Z,10.95
2018-09-22T19:16:45.481Z,10.90
2018-09-22T19:17:45.453Z,10.94
2018-09-22T19:18:45.487Z,10.98
2018-09-22T19:19:45.439Z,10.93
2018-09-22T19:20:46.107Z,10.98
2018-09-22T19:21:45.565Z,10.94
2018-09-22T19:22:45.706Z,10.98
2018-09-22T19:23:45.662Z,10.95
2018-09-22T19:24:45.666Z,10.99
2018-09-22T19:25:45.595Z,10.95
2018-09-22T19:26:51.583Z,10.94
2018-09-22T19:29:16.294Z,11.01
2018-09-22T19:30:14.778Z,10.93
2018-09-22T19:31:14.574Z,10.95
2018-09-22T19:32:18.275Z,10.95
2018-09-22T19:33:14.993Z,10.94
2018-09-22T19:34:15.788Z,10.99
2018-09-22T19:35:15.001Z,10.98
